Time;durP1;ratioP1;P1;durP2;ratioP2;P2;SDS_P1;SDS_P2;PMS_P1;PMS_P2;Temp;Humidity;BMP_temperature;BMP_pressure;BME280_temperature;BME280_humidity;BME280_pressure;Samples;Min_cycle;Max_cycle;Signal;HPM_P1;HPM_P2
2021/12/28 00:00:27;;;;;;;38.00;13.40;;;-7.40;99.90;;;;;;5141200;27;20158;-66
2021/12/28 00:02:56;;;;;;;37.47;14.00;;;-7.50;99.90;;;;;;5139182;27;20155;-67
2021/12/28 00:05:26;;;;;;;32.83;14.13;;;-7.50;99.90;;;;;;5158369;27;21611;-67
2021/12/28 00:07:53;;;;;;;34.47;13.53;;;-7.50;99.90;;;;;;5156599;27;20172;-67
2021/12/28 00:10:20;;;;;;;32.87;13.90;;;-7.50;99.90;;;;;;5138461;27;20581;-67
2021/12/28 00:12:48;;;;;;;38.80;14.10;;;-7.50;99.90;;;;;;5139230;27;20222;-66
2021/12/28 00:18:04;;;;;;;30.77;13.10;;;-7.50;99.90;;;;;;5159337;27;20155;-67
2021/12/28 00:20:42;;;;;;;35.47;13.83;;;-7.60;99.90;;;;;;5156388;27;20143;-67
2021/12/28 00:23:14;;;;;;;40.23;13.97;;;-7.60;99.90;;;;;;5155544;27;20156;-67
2021/12/28 00:25:41;;;;;;;37.90;13.80;;;-7.70;99.90;;;;;;5140455;27;20148;-66
2021/12/28 00:28:09;;;;;;;36.83;13.77;;;-7.70;99.90;;;;;;5139355;27;20145;-67
2021/12/28 00:30:36;;;;;;;39.53;14.23;;;-7.70;99.90;;;;;;5139180;27;20179;-67
2021/12/28 00:33:05;;;;;;;41.27;14.37;;;-7.70;99.90;;;;;;5138444;27;20319;-67
2021/12/28 00:35:35;;;;;;;38.93;14.00;;;-7.80;99.90;;;;;;5140140;27;20188;-66
2021/12/28 00:38:04;;;;;;;38.83;14.03;;;-7.90;99.90;;;;;;5138621;27;20162;-66
2021/12/28 00:40:32;;;;;;;41.07;14.20;;;-7.90;99.90;;;;;;5157436;27;20148;-67
2021/12/28 00:43:00;;;;;;;38.43;13.23;;;-7.90;99.90;;;;;;5138313;27;20175;-67
2021/12/28 00:45:28;;;;;;;35.33;13.70;;;-7.90;99.90;;;;;;5159981;27;20345;-67
2021/12/28 00:47:55;;;;;;;32.47;13.10;;;-7.90;99.90;;;;;;5139409;27;20148;-67
2021/12/28 00:50:23;;;;;;;36.30;14.30;;;-7.90;99.90;;;;;;5140016;27;20148;-67
2021/12/28 00:52:50;;;;;;;34.33;13.10;;;-8.00;99.90;;;;;;5160404;27;20268;-66
2021/12/28 00:55:19;;;;;;;34.37;13.77;;;-8.00;99.90;;;;;;5139653;27;20162;-66
2021/12/28 00:57:46;;;;;;;36.37;13.47;;;-8.00;99.90;;;;;;5157741;27;20160;-66
2021/12/28 01:00:23;;;;;;;38.83;14.50;;;-8.00;99.90;;;;;;5142005;27;20189;-67
2021/12/28 01:02:51;;;;;;;37.00;13.87;;;-8.10;99.90;;;;;;5158305;27;20180;-67
2021/12/28 01:05:19;;;;;;;39.10;14.13;;;-8.00;99.90;;;;;;5139471;27;20164;-67
2021/12/28 01:07:46;;;;;;;35.80;13.07;;;-8.00;99.90;;;;;;5159763;27;20116;-67
2021/12/28 01:10:19;;;;;;;36.20;13.53;;;-8.10;99.90;;;;;;5140077;27;20161;-67
2021/12/28 01:12:49;;;;;;;32.43;13.37;;;-8.10;99.90;;;;;;5158753;27;20206;-67
2021/12/28 01:15:17;;;;;;;34.40;13.87;;;-8.10;99.90;;;;;;5158733;27;20116;-66
2021/12/28 01:17:44;;;;;;;34.20;13.73;;;-8.10;99.90;;;;;;5157113;27;20152;-67
2021/12/28 01:20:13;;;;;;;34.00;12.83;;;-8.20;99.90;;;;;;5139928;27;20143;-67
2021/12/28 01:22:41;;;;;;;36.37;14.07;;;-8.20;99.90;;;;;;5141883;27;20151;-67
2021/12/28 01:25:09;;;;;;;34.90;12.97;;;-8.20;99.90;;;;;;5140322;27;20144;-66
2021/12/28 01:27:36;;;;;;;39.77;14.50;;;-8.20;99.90;;;;;;5139994;27;20142;-67
2021/12/28 01:30:07;;;;;;;34.40;13.97;;;-8.10;99.90;;;;;;5142362;27;20190;-67
2021/12/28 01:32:34;;;;;;;34.87;13.17;;;-8.20;99.90;;;;;;5139584;27;20222;-67
2021/12/28 01:35:02;;;;;;;34.40;14.17;;;-8.20;99.90;;;;;;5140389;27;20136;-67
2021/12/28 01:37:29;;;;;;;39.20;14.17;;;-8.20;99.90;;;;;;5158425;27;20151;-66
2021/12/28 01:39:56;;;;;;;39.60;13.53;;;-8.20;99.90;;;;;;5139593;27;20147;-66
2021/12/28 01:42:23;;;;;;;39.97;13.73;;;-8.20;99.90;;;;;;5157005;27;20198;-66
2021/12/28 01:44:50;;;;;;;35.43;13.30;;;-8.20;99.90;;;;;;5158942;27;20122;-66
2021/12/28 01:47:17;;;;;;;41.00;14.07;;;-8.30;99.90;;;;;;5141971;27;20195;-66
2021/12/28 01:49:45;;;;;;;36.47;13.57;;;-8.30;99.90;;;;;;5160557;27;20195;-66
2021/12/28 01:52:12;;;;;;;37.13;13.83;;;-8.20;99.90;;;;;;5141850;27;20179;-66
2021/12/28 01:54:39;;;;;;;38.63;14.03;;;-8.30;99.90;;;;;;5140412;27;20144;-67
2021/12/28 01:57:06;;;;;;;37.90;13.67;;;-8.30;99.90;;;;;;5140284;27;20148;-66
2021/12/28 01:59:33;;;;;;;36.80;14.00;;;-8.30;99.90;;;;;;5158727;27;20194;-66
2021/12/28 02:02:00;;;;;;;37.60;13.70;;;-8.30;99.90;;;;;;5157905;27;20140;-66
2021/12/28 02:04:29;;;;;;;34.37;13.33;;;-8.30;99.90;;;;;;5140745;27;20356;-66
2021/12/28 02:06:58;;;;;;;33.13;13.63;;;-8.30;99.90;;;;;;5156525;27;20155;-67
2021/12/28 02:09:25;;;;;;;41.33;13.90;;;-8.30;99.90;;;;;;5140911;27;20135;-67
2021/12/28 02:11:53;;;;;;;44.20;13.80;;;-8.30;99.90;;;;;;5156789;27;20152;-66
2021/12/28 02:14:21;;;;;;;36.70;13.93;;;-8.40;99.90;;;;;;5140061;27;20148;-67
2021/12/28 02:16:48;;;;;;;34.80;13.97;;;-8.40;99.90;;;;;;5139473;27;20192;-66
2021/12/28 02:19:16;;;;;;;36.17;13.37;;;-8.30;99.90;;;;;;5158871;27;20195;-66
2021/12/28 02:21:43;;;;;;;41.93;13.63;;;-8.40;99.90;;;;;;5158748;27;20562;-66
2021/12/28 02:24:10;;;;;;;35.27;14.23;;;-8.40;99.90;;;;;;5157104;27;20156;-67
2021/12/28 02:26:37;;;;;;;38.23;15.13;;;-8.40;99.90;;;;;;5158041;27;20387;-67
2021/12/28 02:29:05;;;;;;;37.77;13.50;;;-8.40;99.90;;;;;;5139246;27;20502;-67
2021/12/28 02:31:33;;;;;;;33.30;12.50;;;-8.40;99.90;;;;;;5141171;27;20175;-66
2021/12/28 02:34:04;;;;;;;37.03;13.60;;;-8.40;99.90;;;;;;5138968;27;20195;-66
2021/12/28 02:36:31;;;;;;;31.57;13.43;;;-8.40;99.90;;;;;;5140135;27;20163;-66
2021/12/28 02:38:58;;;;;;;32.07;12.77;;;-8.40;99.90;;;;;;5139288;27;20144;-67
2021/12/28 02:41:25;;;;;;;34.20;13.27;;;-8.40;99.90;;;;;;5139130;27;20141;-66
2021/12/28 02:43:59;;;;;;;40.63;13.87;;;-8.40;99.90;;;;;;5158096;27;20135;-66
2021/12/28 02:46:26;;;;;;;39.80;14.30;;;-8.40;99.90;;;;;;5141439;27;20163;-66
2021/12/28 02:48:53;;;;;;;34.40;13.43;;;-8.40;99.90;;;;;;5141345;27;20139;-67
2021/12/28 02:51:20;;;;;;;35.10;13.03;;;-8.40;99.90;;;;;;5139817;27;20159;-67
2021/12/28 02:53:48;;;;;;;32.97;13.47;;;-8.50;99.90;;;;;;5159921;27;20381;-66
2021/12/28 02:56:16;;;;;;;40.50;14.47;;;-8.50;99.90;;;;;;5141766;27;20140;-67
2021/12/28 02:58:46;;;;;;;38.13;14.50;;;-8.40;99.90;;;;;;5138838;27;20178;-66
2021/12/28 03:01:20;;;;;;;35.27;13.93;;;-8.50;99.90;;;;;;5138947;27;20144;-66
2021/12/28 03:03:51;;;;;;;34.13;14.20;;;-8.50;99.90;;;;;;5158201;27;20120;-66
2021/12/28 03:06:21;;;;;;;36.00;13.70;;;-8.50;99.90;;;;;;5140496;27;20149;-67
2021/12/28 03:08:53;;;;;;;38.20;14.73;;;-8.50;99.90;;;;;;5139634;27;20375;-66
2021/12/28 03:11:21;;;;;;;35.73;13.57;;;-8.50;99.90;;;;;;5139487;27;20183;-67
2021/12/28 03:13:51;;;;;;;36.53;14.03;;;-8.50;99.90;;;;;;5159272;27;20127;-66
2021/12/28 03:16:19;;;;;;;42.87;13.80;;;-8.50;99.90;;;;;;5156073;27;20151;-66
2021/12/28 03:18:46;;;;;;;41.00;14.67;;;-8.60;99.90;;;;;;5155986;27;20152;-66
2021/12/28 03:21:15;;;;;;;41.83;15.13;;;-8.60;99.90;;;;;;5158033;27;20191;-67
2021/12/28 03:23:43;;;;;;;35.10;14.10;;;-8.60;99.90;;;;;;5139666;27;20156;-66
2021/12/28 03:26:12;;;;;;;39.37;13.90;;;-8.60;99.90;;;;;;5157370;27;20163;-66
2021/12/28 03:28:40;;;;;;;38.37;14.30;;;-8.50;99.90;;;;;;5139333;27;20366;-66
2021/12/28 03:31:11;;;;;;;38.60;14.63;;;-8.60;99.90;;;;;;5155897;27;20509;-66
2021/12/28 03:33:41;;;;;;;37.27;14.33;;;-8.60;99.90;;;;;;5159667;27;20401;-66
2021/12/28 03:36:10;;;;;;;35.10;13.87;;;-8.60;99.90;;;;;;5139348;27;20452;-67
2021/12/28 03:38:38;;;;;;;37.67;14.27;;;-8.60;99.90;;;;;;5158440;27;20370;-67
2021/12/28 03:41:07;;;;;;;40.87;14.73;;;-8.60;99.90;;;;;;5158221;27;20117;-67
2021/12/28 03:43:40;;;;;;;37.73;14.27;;;-8.60;99.90;;;;;;5156019;27;20180;-67
2021/12/28 03:46:08;;;;;;;35.37;13.97;;;-8.50;99.90;;;;;;5157490;27;20138;-67
2021/12/28 03:48:36;;;;;;;40.67;14.57;;;-8.60;99.90;;;;;;5138833;27;20162;-67
2021/12/28 03:51:03;;;;;;;39.33;14.10;;;-8.50;99.90;;;;;;5141471;27;20411;-66
2021/12/28 03:53:31;;;;;;;36.90;14.70;;;-8.60;99.90;;;;;;5140458;27;20200;-66
2021/12/28 03:55:58;;;;;;;37.63;14.07;;;-8.60;99.90;;;;;;5157989;27;20116;-66
2021/12/28 03:58:25;;;;;;;40.13;15.40;;;-8.60;99.90;;;;;;5157069;27;20373;-66
2021/12/28 04:00:52;;;;;;;32.80;13.70;;;-8.60;99.90;;;;;;5141471;27;20498;-67
2021/12/28 04:03:19;;;;;;;41.77;15.80;;;-8.60;99.90;;;;;;5138754;27;20152;-67
2021/12/28 04:05:46;;;;;;;36.93;14.93;;;-8.60;99.90;;;;;;5157550;27;20140;-66
2021/12/28 04:08:19;;;;;;;37.90;14.03;;;-8.60;99.90;;;;;;5139449;27;20132;-66
2021/12/28 04:11:01;;;;;;;39.53;14.87;;;-8.60;99.90;;;;;;5155699;27;20502;-66
2021/12/28 04:13:28;;;;;;;36.50;15.50;;;-8.60;99.90;;;;;;5156391;27;20151;-67
2021/12/28 04:15:54;;;;;;;38.20;15.57;;;-8.60;99.90;;;;;;5158748;27;20147;-66
2021/12/28 04:18:22;;;;;;;44.00;15.70;;;-8.60;99.90;;;;;;5139365;27;20144;-67
2021/12/28 04:20:49;;;;;;;37.50;14.67;;;-8.60;99.90;;;;;;5138609;27;20148;-66
2021/12/28 04:23:16;;;;;;;40.10;15.33;;;-8.60;99.90;;;;;;5138595;27;20191;-67
2021/12/28 04:25:42;;;;;;;40.20;15.37;;;-8.60;99.90;;;;;;5156809;27;20483;-66
2021/12/28 04:28:09;;;;;;;36.63;13.60;;;-8.70;99.90;;;;;;5157209;27;20154;-67
2021/12/28 04:30:37;;;;;;;36.63;14.37;;;-8.60;99.90;;;;;;5140333;27;20155;-66
2021/12/28 04:33:04;;;;;;;36.47;14.47;;;-8.60;99.90;;;;;;5140033;27;20191;-67
2021/12/28 04:35:31;;;;;;;37.47;14.97;;;-8.70;99.90;;;;;;5140429;27;20171;-67
2021/12/28 04:37:58;;;;;;;39.67;15.30;;;-8.60;99.90;;;;;;5159650;27;20115;-66
2021/12/28 04:40:25;;;;;;;37.57;16.03;;;-8.70;99.90;;;;;;5159746;27;20128;-66
2021/12/28 04:42:53;;;;;;;35.77;14.03;;;-8.70;99.90;;;;;;5141047;27;20572;-67
2021/12/28 04:45:20;;;;;;;40.33;14.87;;;-8.70;99.90;;;;;;5141437;27;20158;-66
2021/12/28 04:47:47;;;;;;;39.43;14.93;;;-8.70;99.90;;;;;;5141025;27;20143;-67
2021/12/28 04:50:14;;;;;;;37.80;15.13;;;-8.70;99.90;;;;;;5160471;27;20121;-66
2021/12/28 04:52:42;;;;;;;32.90;13.47;;;-8.70;99.90;;;;;;5140199;27;20140;-66
2021/12/28 04:55:16;;;;;;;38.23;15.47;;;-8.70;99.90;;;;;;5140115;27;20167;-66
2021/12/28 04:57:45;;;;;;;33.50;14.03;;;-8.70;99.90;;;;;;5159270;27;20143;-66
2021/12/28 05:00:21;;;;;;;38.67;14.47;;;-8.70;99.90;;;;;;5142033;27;20148;-66
2021/12/28 05:02:48;;;;;;;38.07;14.83;;;-8.70;99.90;;;;;;5157005;27;20140;-66
2021/12/28 05:05:15;;;;;;;43.03;14.87;;;-8.70;99.90;;;;;;5159072;27;20120;-67
2021/12/28 05:07:42;;;;;;;42.63;14.57;;;-8.70;99.90;;;;;;5139876;27;20155;-66
2021/12/28 05:10:10;;;;;;;40.80;14.70;;;-8.70;99.90;;;;;;5159689;27;20147;-68
2021/12/28 05:12:37;;;;;;;35.47;14.43;;;-8.70;99.90;;;;;;5158569;27;20116;-66
2021/12/28 05:15:05;;;;;;;36.20;14.57;;;-8.60;99.90;;;;;;5142079;27;20167;-66
2021/12/28 05:17:33;;;;;;;35.87;14.33;;;-8.70;99.90;;;;;;5159419;27;20348;-66
2021/12/28 05:20:00;;;;;;;45.90;15.07;;;-8.60;99.90;;;;;;5139774;27;20163;-66
2021/12/28 05:22:26;;;;;;;37.03;15.30;;;-8.60;99.90;;;;;;5139509;27;20149;-66
2021/12/28 05:24:53;;;;;;;40.90;14.73;;;-8.60;99.90;;;;;;5141343;27;20160;-67
2021/12/28 05:27:20;;;;;;;35.03;14.90;;;-8.60;99.90;;;;;;5156854;27;20151;-67
2021/12/28 05:29:48;;;;;;;41.00;14.60;;;-8.50;99.90;;;;;;5158394;27;20116;-66
2021/12/28 05:32:16;;;;;;;39.27;14.87;;;-8.50;99.90;;;;;;5160678;27;20374;-67
2021/12/28 05:34:44;;;;;;;42.73;15.73;;;-8.40;99.90;;;;;;5157568;27;20147;-66
2021/12/28 05:37:15;;;;;;;39.20;14.80;;;-8.30;99.90;;;;;;5139634;27;20206;-66
2021/12/28 05:39:42;;;;;;;34.10;14.57;;;-8.30;99.90;;;;;;5139791;27;20180;-66
2021/12/28 05:42:09;;;;;;;41.93;15.23;;;-8.30;99.90;;;;;;5157093;27;20156;-66
2021/12/28 05:44:36;;;;;;;41.40;16.10;;;-8.20;99.90;;;;;;5139752;27;20522;-67
2021/12/28 05:47:03;;;;;;;38.00;14.80;;;-8.10;99.90;;;;;;5139635;27;20144;-66
2021/12/28 05:49:29;;;;;;;39.70;15.63;;;-8.10;99.90;;;;;;5141654;27;20171;-67
2021/12/28 05:51:56;;;;;;;40.00;15.57;;;-8.00;99.90;;;;;;5160052;27;20124;-66
2021/12/28 05:54:23;;;;;;;39.93;15.83;;;-8.00;99.90;;;;;;5156569;27;20475;-66
2021/12/28 05:56:50;;;;;;;38.30;15.13;;;-7.90;99.90;;;;;;5141916;27;20143;-67
2021/12/28 05:59:17;;;;;;;38.30;16.30;;;-7.80;99.90;;;;;;5142318;27;20144;-66
2021/12/28 06:01:44;;;;;;;36.97;15.37;;;-7.80;99.90;;;;;;5141575;27;20178;-67
2021/12/28 06:04:12;;;;;;;46.23;16.07;;;-7.80;99.90;;;;;;5139404;27;20148;-66
2021/12/28 06:06:39;;;;;;;39.37;15.70;;;-7.80;99.90;;;;;;5157502;27;20532;-66
2021/12/28 06:09:06;;;;;;;40.87;16.20;;;-7.70;99.90;;;;;;5141693;27;20529;-66
2021/12/28 06:11:33;;;;;;;39.23;15.30;;;-7.70;99.90;;;;;;5141492;27;20156;-67
2021/12/28 06:14:00;;;;;;;39.27;16.27;;;-7.60;99.90;;;;;;5139805;27;20136;-66
2021/12/28 06:16:32;;;;;;;37.97;15.33;;;-7.60;99.90;;;;;;5160050;27;20116;-66
2021/12/28 06:18:59;;;;;;;37.77;16.13;;;-7.60;99.90;;;;;;5139079;27;20140;-66
2021/12/28 06:21:26;;;;;;;39.43;16.37;;;-7.50;99.90;;;;;;5158133;27;20374;-67
2021/12/28 06:23:53;;;;;;;36.83;15.23;;;-7.40;99.90;;;;;;5158236;27;20191;-67
2021/12/28 06:26:20;;;;;;;41.07;14.77;;;-7.30;99.90;;;;;;5140463;27;20148;-66
2021/12/28 06:28:47;;;;;;;35.03;15.87;;;-7.30;99.90;;;;;;5160863;27;20120;-66
2021/12/28 06:31:14;;;;;;;36.03;14.80;;;-7.20;99.90;;;;;;5139788;27;20148;-66
2021/12/28 06:33:41;;;;;;;37.83;15.73;;;-7.20;99.90;;;;;;5140134;27;20167;-66
2021/12/28 06:36:08;;;;;;;40.43;14.60;;;-7.20;99.90;;;;;;5141198;27;20191;-66
2021/12/28 06:38:35;;;;;;;38.27;15.43;;;-7.20;99.90;;;;;;5139282;27;20179;-66
2021/12/28 06:41:02;;;;;;;39.37;15.27;;;-7.10;99.90;;;;;;5158287;27;20163;-66
2021/12/28 06:43:29;;;;;;;37.83;15.80;;;-7.10;99.90;;;;;;5138906;27;20164;-66
2021/12/28 06:45:56;;;;;;;36.23;15.23;;;-7.10;99.90;;;;;;5160471;27;20116;-66
2021/12/28 06:48:23;;;;;;;36.70;15.27;;;-7.00;99.90;;;;;;5139656;27;20364;-67
2021/12/28 06:50:51;;;;;;;37.67;15.60;;;-7.00;99.90;;;;;;5159684;27;20131;-66
2021/12/28 06:53:18;;;;;;;39.00;15.80;;;-6.90;99.90;;;;;;5139173;27;20273;-67
2021/12/28 06:55:46;;;;;;;38.57;15.53;;;-6.90;99.90;;;;;;5159125;27;20136;-66
2021/12/28 06:58:13;;;;;;;36.47;15.23;;;-6.90;99.90;;;;;;5141041;27;20152;-66
2021/12/28 07:00:40;;;;;;;38.73;15.43;;;-6.80;99.90;;;;;;5141793;27;20144;-66
2021/12/28 07:03:07;;;;;;;37.40;15.10;;;-6.80;99.90;;;;;;5157858;27;20150;-66
2021/12/28 07:05:35;;;;;;;34.77;14.53;;;-6.70;99.90;;;;;;5140792;27;20178;-66
2021/12/28 07:08:02;;;;;;;35.80;15.00;;;-6.70;99.90;;;;;;5140161;27;20139;-67
2021/12/28 07:10:29;;;;;;;38.20;15.50;;;-6.60;99.90;;;;;;5155758;27;20144;-66
2021/12/28 07:12:56;;;;;;;35.80;14.90;;;-6.50;99.90;;;;;;5139048;27;20155;-66
2021/12/28 07:15:23;;;;;;;34.77;15.27;;;-6.50;99.90;;;;;;5157593;27;20481;-66
2021/12/28 07:17:50;;;;;;;37.33;15.67;;;-6.40;99.90;;;;;;5155828;27;20140;-66
2021/12/28 07:20:18;;;;;;;37.97;15.90;;;-6.40;99.90;;;;;;5141540;27;20467;-66
2021/12/28 07:22:45;;;;;;;39.20;15.77;;;-6.30;99.90;;;;;;5158004;27;20167;-66
2021/12/28 07:25:12;;;;;;;39.47;15.83;;;-6.30;99.90;;;;;;5155966;27;20152;-66
2021/12/28 07:27:39;;;;;;;39.47;14.80;;;-6.30;99.90;;;;;;5157327;27;20143;-66
2021/12/28 07:30:09;;;;;;;34.27;14.87;;;-6.20;99.90;;;;;;5139733;27;20140;-67
2021/12/28 07:32:36;;;;;;;34.27;14.80;;;-6.20;99.90;;;;;;5139562;27;20148;-67
2021/12/28 07:35:04;;;;;;;34.67;15.00;;;-6.10;99.90;;;;;;5158162;27;20154;-66
2021/12/28 07:37:31;;;;;;;36.97;15.73;;;-6.10;99.90;;;;;;5158184;27;20155;-66
2021/12/28 07:39:58;;;;;;;36.10;15.37;;;-6.10;99.90;;;;;;5141061;27;20159;-66
2021/12/28 07:42:25;;;;;;;35.83;15.20;;;-6.00;99.90;;;;;;5155946;27;20187;-66
2021/12/28 07:44:52;;;;;;;35.60;14.83;;;-6.00;99.90;;;;;;5156846;27;20506;-66
2021/12/28 07:47:19;;;;;;;37.33;15.30;;;-5.90;99.90;;;;;;5139835;27;20148;-66
2021/12/28 07:49:46;;;;;;;36.50;15.40;;;-5.90;99.90;;;;;;5156455;27;20199;-66
2021/12/28 07:52:13;;;;;;;35.87;15.20;;;-5.90;99.90;;;;;;5156970;27;20159;-67
2021/12/28 07:54:40;;;;;;;34.17;15.60;;;-5.90;99.90;;;;;;5156277;27;20151;-66
2021/12/28 07:57:07;;;;;;;35.00;15.33;;;-5.80;99.90;;;;;;5157906;27;20161;-66
2021/12/28 07:59:33;;;;;;;36.70;15.07;;;-5.80;99.90;;;;;;5141883;27;20155;-66
2021/12/28 08:02:00;;;;;;;37.27;15.57;;;-5.80;99.90;;;;;;5158313;27;20255;-67
2021/12/28 08:04:28;;;;;;;38.10;16.03;;;-5.80;99.90;;;;;;5160973;27;20320;-66
2021/12/28 08:06:55;;;;;;;36.57;15.20;;;-5.90;99.90;;;;;;5140582;27;20204;-67
2021/12/28 08:09:23;;;;;;;36.80;16.00;;;-5.80;99.90;;;;;;5140492;27;20148;-66
2021/12/28 08:11:50;;;;;;;37.83;15.60;;;-5.80;99.90;;;;;;5157429;27;20152;-66
2021/12/28 08:14:18;;;;;;;36.63;15.67;;;-5.90;99.90;;;;;;5143031;27;20148;-66
2021/12/28 08:16:46;;;;;;;38.60;16.03;;;-5.80;99.90;;;;;;5160444;27;20152;-66
2021/12/28 08:19:13;;;;;;;38.90;16.13;;;-5.70;99.90;;;;;;5158623;27;20167;-66
2021/12/28 08:21:44;;;;;;;39.00;16.03;;;-5.80;99.90;;;;;;5140524;27;20183;-66
2021/12/28 08:24:11;;;;;;;36.83;16.00;;;-5.80;99.90;;;;;;5157466;27;20156;-66
2021/12/28 08:26:38;;;;;;;38.40;15.93;;;-5.80;99.90;;;;;;5140149;27;20256;-66
2021/12/28 08:29:05;;;;;;;36.13;15.93;;;-5.90;99.90;;;;;;5160099;27;20112;-66
2021/12/28 08:31:34;;;;;;;38.13;16.77;;;-5.90;99.90;;;;;;5161242;27;20135;-66
2021/12/28 08:34:03;;;;;;;36.03;15.80;;;-5.80;99.90;;;;;;5139920;27;20147;-66
2021/12/28 08:36:29;;;;;;;42.50;17.10;;;-5.80;99.90;;;;;;5159151;27;20151;-66
2021/12/28 08:38:56;;;;;;;35.60;15.37;;;-5.70;99.90;;;;;;5160215;27;20481;-66
2021/12/28 08:41:23;;;;;;;39.57;16.47;;;-5.70;99.90;;;;;;5140123;27;20151;-66
2021/12/28 08:43:50;;;;;;;40.00;16.60;;;-5.60;99.90;;;;;;5157505;27;20172;-66
2021/12/28 08:46:17;;;;;;;41.30;16.53;;;-5.60;99.90;;;;;;5142398;27;20186;-66
2021/12/28 08:48:44;;;;;;;37.43;16.77;;;-5.50;99.90;;;;;;5140984;27;20164;-66
2021/12/28 08:51:11;;;;;;;35.73;16.13;;;-5.50;99.90;;;;;;5161238;27;20175;-67
2021/12/28 08:53:38;;;;;;;33.93;15.63;;;-5.50;99.90;;;;;;5142431;27;20405;-67
2021/12/28 08:56:05;;;;;;;40.47;16.63;;;-5.50;99.90;;;;;;5160698;27;20135;-66
2021/12/28 08:58:32;;;;;;;42.20;17.23;;;-5.40;99.90;;;;;;5158692;27;20446;-66
2021/12/28 09:01:00;;;;;;;37.77;15.67;;;-5.40;99.90;;;;;;5161387;27;20367;-66
2021/12/28 09:03:28;;;;;;;45.10;17.13;;;-5.40;99.90;;;;;;5140543;27;20155;-67
2021/12/28 09:05:55;;;;;;;35.13;15.93;;;-5.30;99.90;;;;;;5140145;27;20155;-67
2021/12/28 09:08:22;;;;;;;39.60;17.20;;;-5.30;99.90;;;;;;5140114;27;20150;-67
2021/12/28 09:10:49;;;;;;;41.40;17.00;;;-5.20;99.90;;;;;;5159023;27;20139;-66
2021/12/28 09:13:17;;;;;;;36.47;16.87;;;-5.20;99.90;;;;;;5158962;27;20419;-66
2021/12/28 09:15:45;;;;;;;35.27;15.90;;;-5.20;99.90;;;;;;5140847;27;20171;-66
2021/12/28 09:18:12;;;;;;;35.40;15.60;;;-5.10;99.90;;;;;;5160569;27;20131;-67
2021/12/28 09:20:39;;;;;;;38.40;16.67;;;-5.10;99.90;;;;;;5141798;27;20171;-66
2021/12/28 09:23:08;;;;;;;37.03;16.87;;;-5.10;99.90;;;;;;5157151;27;20182;-66
2021/12/28 09:25:35;;;;;;;41.83;17.60;;;-5.00;99.90;;;;;;5159878;27;20155;-67
2021/12/28 09:28:03;;;;;;;44.80;16.90;;;-5.00;99.90;;;;;;5159169;27;20116;-67
2021/12/28 09:30:31;;;;;;;39.67;17.03;;;-4.90;99.90;;;;;;5157603;27;20160;-67
2021/12/28 09:32:58;;;;;;;43.73;18.13;;;-4.80;99.90;;;;;;5158491;27;20151;-67
2021/12/28 09:35:25;;;;;;;42.00;17.20;;;-4.80;99.90;;;;;;5141345;27;20160;-66
2021/12/28 09:37:52;;;;;;;40.63;17.50;;;-4.80;99.90;;;;;;5140855;27;20180;-66
2021/12/28 09:40:19;;;;;;;41.50;17.57;;;-4.70;99.90;;;;;;5160089;27;20187;-66
2021/12/28 09:42:46;;;;;;;44.57;17.37;;;-4.70;99.90;;;;;;5141404;27;20470;-66
2021/12/28 09:45:14;;;;;;;40.00;16.67;;;-4.60;99.90;;;;;;5140311;27;20184;-66
2021/12/28 09:47:42;;;;;;;40.13;17.47;;;-4.50;99.90;;;;;;5141545;27;20145;-66
2021/12/28 09:50:15;;;;;;;42.90;17.37;;;-4.50;99.90;;;;;;5158653;27;20144;-67
2021/12/28 09:52:47;;;;;;;43.80;17.87;;;-4.40;99.90;;;;;;5140566;27;20446;-66
2021/12/28 09:55:21;;;;;;;42.73;17.77;;;-4.40;99.90;;;;;;5139979;27;20148;-66
2021/12/28 09:57:50;;;;;;;39.57;16.77;;;-4.30;99.90;;;;;;5140383;27;20494;-66
2021/12/28 10:00:20;;;;;;;41.53;17.80;;;-4.30;99.90;;;;;;5140484;27;20149;-66
2021/12/28 10:03:07;;;;;;;42.50;17.63;;;-4.20;99.90;;;;;;5156363;27;20179;-66
2021/12/28 10:05:35;;;;;;;41.70;17.37;;;-4.20;99.90;;;;;;5140299;27;20413;-66
2021/12/28 10:08:04;;;;;;;49.10;19.23;;;-4.20;99.90;;;;;;5158813;27;20443;-66
2021/12/28 10:10:40;;;;;;;37.37;16.73;;;-4.20;99.90;;;;;;5141022;27;20158;-66
2021/12/28 10:13:16;;;;;;;42.53;17.20;;;-4.20;99.90;;;;;;5159421;27;20127;-66
2021/12/28 10:15:44;;;;;;;43.77;19.33;;;-4.10;99.90;;;;;;5140023;27;20155;-66
2021/12/28 10:18:12;;;;;;;41.77;17.33;;;-4.10;99.90;;;;;;5142009;27;20159;-67
2021/12/28 10:20:49;;;;;;;41.17;18.10;;;-4.10;99.90;;;;;;5140041;27;20478;-66
2021/12/28 10:23:22;;;;;;;38.23;17.17;;;-4.00;99.90;;;;;;5158428;27;20171;-67
2021/12/28 10:25:54;;;;;;;40.87;18.33;;;-3.90;99.90;;;;;;5140591;27;20148;-66
2021/12/28 10:28:24;;;;;;;38.53;17.13;;;-3.90;99.90;;;;;;5156551;27;20505;-66
2021/12/28 10:30:54;;;;;;;41.80;17.97;;;-3.90;99.90;;;;;;5139632;27;20144;-66
2021/12/28 10:33:24;;;;;;;42.37;18.43;;;-3.90;99.90;;;;;;5139161;27;20208;-67
2021/12/28 10:35:58;;;;;;;39.50;17.93;;;-3.80;99.90;;;;;;5139580;27;20144;-67
2021/12/28 10:38:29;;;;;;;41.70;18.17;;;-3.80;99.90;;;;;;5158387;27;20155;-67
2021/12/28 10:40:59;;;;;;;38.53;17.20;;;-3.80;99.90;;;;;;5158095;27;20514;-66
2021/12/28 10:43:29;;;;;;;38.57;17.83;;;-3.80;99.90;;;;;;5139399;27;20175;-67
2021/12/28 10:46:09;;;;;;;41.47;17.67;;;-3.70;99.90;;;;;;5139160;27;20180;-67
2021/12/28 10:48:39;;;;;;;39.97;17.63;;;-3.70;99.90;;;;;;5139646;27;20163;-67
2021/12/28 10:51:16;;;;;;;39.87;17.40;;;-3.70;99.90;;;;;;5156114;27;20171;-67
2021/12/28 10:54:12;;;;;;;39.40;17.40;;;-3.60;99.90;;;;;;5140360;27;20148;-66
2021/12/28 10:56:59;;;;;;;41.87;17.83;;;-3.60;99.90;;;;;;5160408;27;20120;-66
2021/12/28 10:59:33;;;;;;;37.37;17.20;;;-3.60;99.90;;;;;;5158161;27;20127;-66
2021/12/28 11:02:01;;;;;;;36.67;17.13;;;-3.60;99.90;;;;;;5141202;27;20173;-67
2021/12/28 11:04:34;;;;;;;36.80;16.83;;;-3.50;99.90;;;;;;5141333;27;20154;-67
2021/12/28 11:07:08;;;;;;;36.27;17.40;;;-3.50;99.90;;;;;;5139287;27;20565;-66
2021/12/28 11:09:44;;;;;;;35.23;16.47;;;-3.50;99.90;;;;;;5139567;27;20143;-66
2021/12/28 11:12:11;;;;;;;37.10;17.93;;;-3.40;99.90;;;;;;5139348;27;20155;-66
2021/12/28 11:14:38;;;;;;;39.77;17.50;;;-3.40;99.90;;;;;;5159668;27;20120;-66
2021/12/28 11:17:05;;;;;;;34.07;16.40;;;-3.40;99.90;;;;;;5141380;27;20144;-67
2021/12/28 11:19:37;;;;;;;37.70;16.33;;;-3.30;99.90;;;;;;5139024;27;20187;-66
2021/12/28 11:22:11;;;;;;;38.47;17.10;;;-3.30;99.90;;;;;;5139444;27;20144;-67
2021/12/28 11:24:45;;;;;;;41.37;18.33;;;-3.30;99.90;;;;;;5139889;27;20214;-67
2021/12/28 11:27:21;;;;;;;38.97;18.67;;;-3.30;99.90;;;;;;5140227;27;20144;-67
2021/12/28 11:29:59;;;;;;;39.43;17.20;;;-3.30;99.90;;;;;;5160972;27;20376;-66
2021/12/28 11:32:27;;;;;;;33.83;15.30;;;-3.30;99.90;;;;;;5140635;27;20437;-66
2021/12/28 11:34:54;;;;;;;35.40;16.80;;;-3.30;99.90;;;;;;5158347;27;20482;-66
2021/12/28 11:37:25;;;;;;;42.57;18.40;;;-3.30;99.90;;;;;;5158528;27;20200;-66
2021/12/28 11:40:01;;;;;;;40.20;18.37;;;-3.30;99.90;;;;;;5140449;27;20144;-67
2021/12/28 11:42:30;;;;;;;42.30;18.80;;;-3.20;99.90;;;;;;5140029;27;20508;-66
2021/12/28 11:44:58;;;;;;;43.93;20.30;;;-3.20;99.90;;;;;;5141455;27;20170;-66
2021/12/28 11:47:25;;;;;;;45.97;19.83;;;-3.20;99.90;;;;;;5160089;27;20436;-67
2021/12/28 11:49:56;;;;;;;43.33;19.23;;;-3.20;99.90;;;;;;5141150;27;20284;-67
2021/12/28 11:52:23;;;;;;;43.73;20.37;;;-3.10;99.90;;;;;;5141037;27;20186;-66
2021/12/28 11:54:52;;;;;;;44.63;20.33;;;-3.10;99.90;;;;;;5160369;27;20128;-66
2021/12/28 11:57:22;;;;;;;50.40;20.77;;;-3.10;99.90;;;;;;5158540;27;20129;-66
2021/12/28 11:59:55;;;;;;;42.80;20.47;;;-3.00;99.90;;;;;;5139015;27;20144;-66
2021/12/28 12:02:56;;;;;;;46.60;20.93;;;-3.10;99.90;;;;;;5140839;27;20151;-67
2021/12/28 12:05:30;;;;;;;48.50;22.10;;;-3.10;99.90;;;;;;5115112;28;20187;-66
2021/12/28 12:08:08;;;;;;;46.70;21.60;;;-3.00;99.90;;;;;;5116573;28;20129;-66
2021/12/28 12:10:37;;;;;;;47.97;21.20;;;-3.00;99.90;;;;;;5114470;28;20181;-67
2021/12/28 12:13:12;;;;;;;47.73;21.80;;;-3.00;99.90;;;;;;5098583;28;20210;-67
2021/12/28 12:15:42;;;;;;;49.50;21.60;;;-3.00;99.90;;;;;;5114954;28;20167;-67
2021/12/28 12:18:12;;;;;;;49.67;22.37;;;-3.00;99.90;;;;;;5114469;28;20189;-66
2021/12/28 12:20:47;;;;;;;48.87;21.97;;;-3.00;99.90;;;;;;5114044;28;20125;-66
2021/12/28 12:23:20;;;;;;;48.00;22.00;;;-3.00;99.90;;;;;;5114476;28;20530;-67
2021/12/28 12:25:49;;;;;;;51.40;22.20;;;-3.00;99.90;;;;;;5114655;28;20212;-67
2021/12/28 12:28:24;;;;;;;41.77;19.50;;;-2.90;99.90;;;;;;5114833;28;20153;-66
2021/12/28 12:30:53;;;;;;;44.50;20.23;;;-2.90;99.90;;;;;;5114348;28;20145;-66
2021/12/28 12:33:21;;;;;;;43.57;20.50;;;-3.00;99.90;;;;;;5097830;28;20145;-67
2021/12/28 12:35:54;;;;;;;49.57;21.13;;;-3.00;99.90;;;;;;5114234;28;20569;-67
2021/12/28 12:38:24;;;;;;;45.40;21.50;;;-3.00;99.90;;;;;;5115218;28;20138;-66